Etusivu
METAR-TAF:

METAR-TAF

Lentoasemat :

Hillsdale Municipal Airport

Hillsdale, Michigan, Yhdysvallat

Leveyspiiri: 41-55-17N, Pituuspiiri: 084-35-09W, korkeus merenpinnasta: 360 m

Tämänhetkinen sää

Tämä raportti tehtiin 12 minuuttia sitten, kello 12.15 UTC
Tuuli 5 kn pohjoisen/luoteesta
Lämpötila 3°C
Kosteus 100%
Ilmanpaine 1016 hPa
Näkyvyys: 3.2 km
Pilvistä 300 ft:n korkeudessa
utua

METAR: KJYM 011215Z AUTO 34005KT 2SM BR OVC003 03/03 A2999 RMK AO2 T00340029

Aika: 08:27 (12:27 UTC)


TAF: puuttuu

Säähavainnot ja -ennusteet yli 4000 lentoasemalta (METAR- ja TAF-raportit).

Käytössä olevat sääasemat on merkitty karttaan keltaisilla ja punaisilla pisteillä.

Aseta hiiri pisteen päälle nähdäksesi sääaseman nimen.

Klikkaa sitten nähdäksesi säähavainnot ja -ennusteet.

Kartan vaihtaminen: klikkaa mustalla rastilla varustettuja vihreitä pisteitä, niin voit zoomata sisään; viivalla varustettua vihreää pistettä, niin voit zoomata ulos tai vihreitä nuolia, niin pääset viereisille kartoille.


METAR-TAF: